Terminal Aerodrome Forecast
Issued by NWS

Home | Current Version | Previous Version | Text Only | Print | Product List | Glossary On
Versions: 1 2 3 4 5 6 7 8 9 10 11 12 13 14 15
000
FTUS44 KLZK 062300 RRA
TAFHRO
TAF
KHRO 062345Z 0700/0724 16014KT P6SM BKN120
     FM070100 15007KT P6SM BKN120
     FM071000 16010KT P6SM SCT020 BKN100
     FM071600 19010G18KT P6SM BKN035 OVC080 PROB30 0720/0724 5SM
      -TSRA OVC035CB=

USA.gov is the U.S. government's official web portal to all federal, state and local government web resources and services.